sensor_id;sensor_type;location;lat;lon;timestamp;pressure;altitude;pressure_sealevel;temperature;humidity
22257;BME280;11297;42.686;23.374;2022-11-13T00:01:25;96407.31;;;11.46;71.64
22257;BME280;11297;42.686;23.374;2022-11-13T00:03:50;96402.38;;;11.40;71.78
22257;BME280;11297;42.686;23.374;2022-11-13T00:06:17;96406.31;;;11.37;72.05
22257;BME280;11297;42.686;23.374;2022-11-13T00:08:43;96393.53;;;11.41;72.01
22257;BME280;11297;42.686;23.374;2022-11-13T00:11:11;96402.66;;;11.38;72.08
22257;BME280;11297;42.686;23.374;2022-11-13T00:13:37;96398.25;;;11.34;72.17
22257;BME280;11297;42.686;23.374;2022-11-13T00:16:05;96398.56;;;11.27;72.43
22257;BME280;11297;42.686;23.374;2022-11-13T00:18:33;96392.38;;;11.18;72.83
22257;BME280;11297;42.686;23.374;2022-11-13T00:21:06;96385.56;;;11.27;72.39
22257;BME280;11297;42.686;23.374;2022-11-13T00:23:33;96390.28;;;11.25;72.54
22257;BME280;11297;42.686;23.374;2022-11-13T00:26:15;96404.84;;;11.21;72.95
22257;BME280;11297;42.686;23.374;2022-11-13T00:28:41;96384.63;;;11.13;73.06
22257;BME280;11297;42.686;23.374;2022-11-13T00:31:08;96384.53;;;11.23;73.09
22257;BME280;11297;42.686;23.374;2022-11-13T00:33:34;96384.63;;;11.13;73.09
22257;BME280;11297;42.686;23.374;2022-11-13T00:36:04;96378.88;;;11.16;73.42
22257;BME280;11297;42.686;23.374;2022-11-13T00:38:30;96374.72;;;11.15;73.60
22257;BME280;11297;42.686;23.374;2022-11-13T00:40:56;96386.38;;;11.23;72.97
22257;BME280;11297;42.686;23.374;2022-11-13T00:43:22;96384.31;;;11.20;73.51
22257;BME280;11297;42.686;23.374;2022-11-13T00:45:47;96376.69;;;11.33;73.27
22257;BME280;11297;42.686;23.374;2022-11-13T00:48:12;96369.38;;;11.35;73.58
22257;BME280;11297;42.686;23.374;2022-11-13T00:50:38;96370.91;;;11.41;72.56
22257;BME280;11297;42.686;23.374;2022-11-13T00:53:03;96367.47;;;11.45;72.78
22257;BME280;11297;42.686;23.374;2022-11-13T00:55:28;96378.44;;;11.47;72.61
22257;BME280;11297;42.686;23.374;2022-11-13T00:57:54;96374.50;;;11.50;72.11
22257;BME280;11297;42.686;23.374;2022-11-13T01:00:19;96382.84;;;11.47;72.02
22257;BME280;11297;42.686;23.374;2022-11-13T01:02:45;96364.63;;;11.52;72.15
22257;BME280;11297;42.686;23.374;2022-11-13T01:05:10;96385.28;;;11.29;72.70
22257;BME280;11297;42.686;23.374;2022-11-13T01:07:36;96382.13;;;11.37;72.73
22257;BME280;11297;42.686;23.374;2022-11-13T01:10:03;96380.31;;;11.32;72.42
22257;BME280;11297;42.686;23.374;2022-11-13T01:12:29;96378.78;;;11.26;72.86
22257;BME280;11297;42.686;23.374;2022-11-13T01:14:54;96376.47;;;11.30;72.93
22257;BME280;11297;42.686;23.374;2022-11-13T01:17:20;96367.09;;;11.29;72.57
22257;BME280;11297;42.686;23.374;2022-11-13T01:19:45;96357.00;;;11.22;72.37
22257;BME280;11297;42.686;23.374;2022-11-13T01:22:10;96355.38;;;11.26;72.11
22257;BME280;11297;42.686;23.374;2022-11-13T01:24:36;96367.25;;;11.42;71.51
22257;BME280;11297;42.686;23.374;2022-11-13T01:27:01;96358.41;;;11.43;71.15
22257;BME280;11297;42.686;23.374;2022-11-13T01:29:26;96369.38;;;11.40;71.19
22257;BME280;11297;42.686;23.374;2022-11-13T01:31:52;96362.28;;;11.45;70.71
22257;BME280;11297;42.686;23.374;2022-11-13T01:34:17;96364.16;;;11.40;71.06
22257;BME280;11297;42.686;23.374;2022-11-13T01:36:43;96363.59;;;11.48;70.53
22257;BME280;11297;42.686;23.374;2022-11-13T01:39:10;96354.84;;;11.29;70.94
22257;BME280;11297;42.686;23.374;2022-11-13T01:41:36;96364.94;;;11.41;70.97
22257;BME280;11297;42.686;23.374;2022-11-13T01:44:02;96353.00;;;11.35;70.90
22257;BME280;11297;42.686;23.374;2022-11-13T01:46:33;96349.59;;;11.39;71.02
22257;BME280;11297;42.686;23.374;2022-11-13T01:49:03;96346.50;;;11.37;71.03
22257;BME280;11297;42.686;23.374;2022-11-13T01:51:49;96338.16;;;11.35;71.26
22257;BME280;11297;42.686;23.374;2022-11-13T01:54:29;96347.31;;;11.28;71.47
22257;BME280;11297;42.686;23.374;2022-11-13T01:56:56;96345.78;;;11.27;71.37
22257;BME280;11297;42.686;23.374;2022-11-13T01:59:32;96341.75;;;11.44;71.17
22257;BME280;11297;42.686;23.374;2022-11-13T02:01:59;96347.22;;;11.47;70.44
22257;BME280;11297;42.686;23.374;2022-11-13T02:04:25;96336.63;;;11.34;71.08
22257;BME280;11297;42.686;23.374;2022-11-13T02:07:03;96346.28;;;11.29;71.34
22257;BME280;11297;42.686;23.374;2022-11-13T02:09:35;96348.03;;;11.38;71.13
22257;BME280;11297;42.686;23.374;2022-11-13T02:12:03;96343.13;;;11.32;71.40
22257;BME280;11297;42.686;23.374;2022-11-13T02:14:30;96353.44;;;11.46;71.12
22257;BME280;11297;42.686;23.374;2022-11-13T02:16:59;96344.06;;;11.45;70.99
22257;BME280;11297;42.686;23.374;2022-11-13T02:19:32;96348.75;;;11.53;70.70
22257;BME280;11297;42.686;23.374;2022-11-13T02:24:40;96352.66;;;11.51;71.11
22257;BME280;11297;42.686;23.374;2022-11-13T02:27:14;96339.41;;;11.43;71.46
22257;BME280;11297;42.686;23.374;2022-11-13T02:29:41;96339.19;;;11.39;71.65
22257;BME280;11297;42.686;23.374;2022-11-13T02:32:07;96351.72;;;11.32;72.30
22257;BME280;11297;42.686;23.374;2022-11-13T02:34:32;96345.94;;;11.40;71.89
22257;BME280;11297;42.686;23.374;2022-11-13T02:36:58;96343.28;;;11.50;71.31
22257;BME280;11297;42.686;23.374;2022-11-13T02:39:23;96331.28;;;11.54;71.43
22257;BME280;11297;42.686;23.374;2022-11-13T02:41:48;96334.16;;;11.52;71.53
22257;BME280;11297;42.686;23.374;2022-11-13T02:44:14;96327.41;;;11.51;71.34
22257;BME280;11297;42.686;23.374;2022-11-13T02:46:39;96331.78;;;11.61;70.97
22257;BME280;11297;42.686;23.374;2022-11-13T02:49:05;96342.59;;;11.73;70.59
22257;BME280;11297;42.686;23.374;2022-11-13T02:51:30;96332.75;;;11.65;70.80
22257;BME280;11297;42.686;23.374;2022-11-13T02:53:56;96345.22;;;11.68;70.71
22257;BME280;11297;42.686;23.374;2022-11-13T02:56:21;96336.38;;;11.69;71.01
22257;BME280;11297;42.686;23.374;2022-11-13T02:58:46;96342.59;;;11.73;71.19
22257;BME280;11297;42.686;23.374;2022-11-13T03:01:12;96343.56;;;11.82;70.78
22257;BME280;11297;42.686;23.374;2022-11-13T03:03:37;96347.75;;;11.78;70.86
22257;BME280;11297;42.686;23.374;2022-11-13T03:06:03;96345.97;;;11.73;71.08
22257;BME280;11297;42.686;23.374;2022-11-13T03:08:28;96348.56;;;11.73;71.27
22257;BME280;11297;42.686;23.374;2022-11-13T03:10:55;96352.31;;;11.62;71.84
22257;BME280;11297;42.686;23.374;2022-11-13T03:13:20;96357.84;;;11.51;72.33
22257;BME280;11297;42.686;23.374;2022-11-13T03:15:46;96351.06;;;11.55;72.23
22257;BME280;11297;42.686;23.374;2022-11-13T03:18:11;96354.50;;;11.50;72.84
22257;BME280;11297;42.686;23.374;2022-11-13T03:20:38;96355.25;;;11.51;72.84
22257;BME280;11297;42.686;23.374;2022-11-13T03:23:04;96358.41;;;11.43;72.61
22257;BME280;11297;42.686;23.374;2022-11-13T03:25:31;96353.97;;;11.43;73.20
22257;BME280;11297;42.686;23.374;2022-11-13T03:27:57;96364.56;;;11.57;72.84
22257;BME280;11297;42.686;23.374;2022-11-13T03:30:22;96349.56;;;11.49;72.73
22257;BME280;11297;42.686;23.374;2022-11-13T03:32:52;96344.03;;;11.55;72.94
22257;BME280;11297;42.686;23.374;2022-11-13T03:35:17;96359.88;;;11.59;72.69
22257;BME280;11297;42.686;23.374;2022-11-13T03:37:43;96351.03;;;11.60;72.40
22257;BME280;11297;42.686;23.374;2022-11-13T03:40:08;96356.22;;;11.60;72.68
22257;BME280;11297;42.686;23.374;2022-11-13T03:42:34;96359.56;;;11.65;72.35
22257;BME280;11297;42.686;23.374;2022-11-13T03:45:00;96356.44;;;11.68;72.24
22257;BME280;11297;42.686;23.374;2022-11-13T03:47:25;96348.09;;;11.71;72.61
22257;BME280;11297;42.686;23.374;2022-11-13T03:49:51;96353.28;;;11.71;72.07
22257;BME280;11297;42.686;23.374;2022-11-13T03:52:16;96361.47;;;11.88;71.61
22257;BME280;11297;42.686;23.374;2022-11-13T03:54:41;96362.22;;;11.89;71.45
22257;BME280;11297;42.686;23.374;2022-11-13T03:57:07;96358.38;;;11.86;71.56
22257;BME280;11297;42.686;23.374;2022-11-13T03:59:32;96360.22;;;11.81;71.91
22257;BME280;11297;42.686;23.374;2022-11-13T04:01:57;96357.34;;;11.82;71.92
22257;BME280;11297;42.686;23.374;2022-11-13T04:04:23;96366.13;;;11.91;71.70
22257;BME280;11297;42.686;23.374;2022-11-13T04:06:49;96357.84;;;11.84;71.93
22257;BME280;11297;42.686;23.374;2022-11-13T04:09:14;96361.41;;;11.93;71.63
22257;BME280;11297;42.686;23.374;2022-11-13T04:11:39;96358.31;;;11.91;71.38
22257;BME280;11297;42.686;23.374;2022-11-13T04:14:05;96357.81;;;11.89;71.90
22257;BME280;11297;42.686;23.374;2022-11-13T04:16:30;96356.47;;;11.92;71.84
22257;BME280;11297;42.686;23.374;2022-11-13T04:18:55;96359.13;;;11.87;71.83
22257;BME280;11297;42.686;23.374;2022-11-13T04:21:21;96353.84;;;11.96;71.54
22257;BME280;11297;42.686;23.374;2022-11-13T04:23:46;96352.97;;;12.06;71.34
22257;BME280;11297;42.686;23.374;2022-11-13T04:26:12;96357.13;;;12.07;71.02
22257;BME280;11297;42.686;23.374;2022-11-13T04:28:37;96352.19;;;12.05;71.47
22257;BME280;11297;42.686;23.374;2022-11-13T04:31:03;96350.31;;;12.11;70.85
22257;BME280;11297;42.686;23.374;2022-11-13T04:33:28;96352.75;;;12.02;71.28
22257;BME280;11297;42.686;23.374;2022-11-13T04:35:53;96354.56;;;12.02;71.21
22257;BME280;11297;42.686;23.374;2022-11-13T04:38:19;96359.31;;;11.95;71.43
22257;BME280;11297;42.686;23.374;2022-11-13T04:40:48;96365.31;;;11.95;71.57
22257;BME280;11297;42.686;23.374;2022-11-13T04:43:14;96359.00;;;12.01;71.61
22257;BME280;11297;42.686;23.374;2022-11-13T04:45:39;96359.81;;;11.97;71.93
22257;BME280;11297;42.686;23.374;2022-11-13T04:48:04;96359.88;;;11.92;71.78
22257;BME280;11297;42.686;23.374;2022-11-13T04:50:30;96356.38;;;11.73;72.69
22257;BME280;11297;42.686;23.374;2022-11-13T04:52:56;96347.22;;;11.81;72.57
22257;BME280;11297;42.686;23.374;2022-11-13T04:55:21;96351.88;;;11.84;72.39
22257;BME280;11297;42.686;23.374;2022-11-13T04:57:47;96359.06;;;11.92;72.29
22257;BME280;11297;42.686;23.374;2022-11-13T05:00:15;96351.31;;;11.87;72.16
22257;BME280;11297;42.686;23.374;2022-11-13T05:02:41;96354.66;;;11.92;72.21
22257;BME280;11297;42.686;23.374;2022-11-13T05:05:08;96358.09;;;11.88;72.32
22257;BME280;11297;42.686;23.374;2022-11-13T05:07:33;96361.78;;;11.82;72.48
22257;BME280;11297;42.686;23.374;2022-11-13T05:09:58;96366.31;;;11.66;72.82
22257;BME280;11297;42.686;23.374;2022-11-13T05:12:24;96363.22;;;11.64;72.99
22257;BME280;11297;42.686;23.374;2022-11-13T05:14:49;96355.00;;;11.43;74.03
22257;BME280;11297;42.686;23.374;2022-11-13T05:17:15;96375.59;;;11.39;74.41
22257;BME280;11297;42.686;23.374;2022-11-13T05:19:40;96352.47;;;11.38;74.75
22257;BME280;11297;42.686;23.374;2022-11-13T05:22:05;96362.88;;;11.38;74.59
22257;BME280;11297;42.686;23.374;2022-11-13T05:24:31;96372.47;;;11.42;74.60
22257;BME280;11297;42.686;23.374;2022-11-13T05:26:57;96365.66;;;11.51;74.38
22257;BME280;11297;42.686;23.374;2022-11-13T05:29:22;96362.84;;;11.47;74.09
22257;BME280;11297;42.686;23.374;2022-11-13T05:31:48;96366.69;;;11.55;74.14
22257;BME280;11297;42.686;23.374;2022-11-13T05:34:13;96364.84;;;11.55;74.06
22257;BME280;11297;42.686;23.374;2022-11-13T05:36:39;96363.56;;;11.53;74.03
22257;BME280;11297;42.686;23.374;2022-11-13T05:39:04;96372.16;;;11.53;73.71
22257;BME280;11297;42.686;23.374;2022-11-13T05:41:30;96366.09;;;11.63;73.43
22257;BME280;11297;42.686;23.374;2022-11-13T05:43:56;96377.63;;;11.52;73.74
22257;BME280;11297;42.686;23.374;2022-11-13T05:46:24;96377.59;;;11.57;73.52
22257;BME280;11297;42.686;23.374;2022-11-13T05:49:00;96385.88;;;11.64;73.18
22257;BME280;11297;42.686;23.374;2022-11-13T05:51:28;96385.28;;;11.72;72.74
22257;BME280;11297;42.686;23.374;2022-11-13T05:53:54;96380.50;;;11.50;73.68
22257;BME280;11297;42.686;23.374;2022-11-13T05:56:22;96381.44;;;11.64;73.03
22257;BME280;11297;42.686;23.374;2022-11-13T05:58:49;96387.53;;;11.50;73.58
22257;BME280;11297;42.686;23.374;2022-11-13T06:01:17;96380.63;;;11.69;73.15
22257;BME280;11297;42.686;23.374;2022-11-13T06:03:44;96392.72;;;11.55;73.37
22257;BME280;11297;42.686;23.374;2022-11-13T06:06:14;96398.94;;;11.54;74.08
22257;BME280;11297;42.686;23.374;2022-11-13T06:08:40;96392.97;;;11.53;73.80
22257;BME280;11297;42.686;23.374;2022-11-13T06:11:09;96393.16;;;11.62;73.28
22257;BME280;11297;42.686;23.374;2022-11-13T06:13:35;96402.53;;;11.63;73.53
22257;BME280;11297;42.686;23.374;2022-11-13T06:16:06;96403.72;;;11.75;72.83
22257;BME280;11297;42.686;23.374;2022-11-13T06:18:32;96391.19;;;11.82;72.31
22257;BME280;11297;42.686;23.374;2022-11-13T06:21:03;96396.41;;;11.82;72.09
22257;BME280;11297;42.686;23.374;2022-11-13T06:23:31;96384.91;;;11.88;72.11
22257;BME280;11297;42.686;23.374;2022-11-13T06:26:05;96380.97;;;11.91;71.82
22257;BME280;11297;42.686;23.374;2022-11-13T06:28:31;96392.22;;;11.81;72.21
22257;BME280;11297;42.686;23.374;2022-11-13T06:31:02;96395.03;;;11.90;72.02
22257;BME280;11297;42.686;23.374;2022-11-13T06:33:28;96397.44;;;11.81;72.41
22257;BME280;11297;42.686;23.374;2022-11-13T06:35:53;96395.84;;;11.85;72.10
22257;BME280;11297;42.686;23.374;2022-11-13T06:38:18;96390.09;;;11.88;72.09
22257;BME280;11297;42.686;23.374;2022-11-13T06:40:44;96388.78;;;11.91;71.81
22257;BME280;11297;42.686;23.374;2022-11-13T06:43:09;96391.50;;;11.76;71.63
22257;BME280;11297;42.686;23.374;2022-11-13T06:45:35;96395.63;;;11.82;71.51
22257;BME280;11297;42.686;23.374;2022-11-13T06:48:00;96396.56;;;11.95;71.37
22257;BME280;11297;42.686;23.374;2022-11-13T06:50:25;96393.19;;;11.95;71.13
22257;BME280;11297;42.686;23.374;2022-11-13T06:52:51;96394.44;;;11.97;70.74
22257;BME280;11297;42.686;23.374;2022-11-13T06:55:16;96385.25;;;12.05;70.02
22257;BME280;11297;42.686;23.374;2022-11-13T06:57:41;96391.56;;;11.99;70.37
22257;BME280;11297;42.686;23.374;2022-11-13T07:00:07;96393.00;;;12.15;70.39
22257;BME280;11297;42.686;23.374;2022-11-13T07:02:33;96391.94;;;12.16;70.14
22257;BME280;11297;42.686;23.374;2022-11-13T07:04:58;96391.16;;;12.15;70.40
22257;BME280;11297;42.686;23.374;2022-11-13T07:07:24;96389.91;;;12.08;70.43
22257;BME280;11297;42.686;23.374;2022-11-13T07:09:49;96390.38;;;12.15;70.19
22257;BME280;11297;42.686;23.374;2022-11-13T07:12:14;96391.41;;;12.19;69.96
22257;BME280;11297;42.686;23.374;2022-11-13T07:14:40;96398.69;;;12.17;69.96
22257;BME280;11297;42.686;23.374;2022-11-13T07:17:05;96391.81;;;12.02;70.10
22257;BME280;11297;42.686;23.374;2022-11-13T07:19:30;96407.34;;;12.12;69.44
22257;BME280;11297;42.686;23.374;2022-11-13T07:21:56;96405.06;;;12.06;68.55
22257;BME280;11297;42.686;23.374;2022-11-13T07:24:21;96399.50;;;11.84;68.95
22257;BME280;11297;42.686;23.374;2022-11-13T07:26:46;96389.81;;;11.90;68.82
22257;BME280;11297;42.686;23.374;2022-11-13T07:29:12;96403.63;;;11.90;68.78
22257;BME280;11297;42.686;23.374;2022-11-13T07:31:37;96391.97;;;11.83;69.19
22257;BME280;11297;42.686;23.374;2022-11-13T07:34:03;96393.19;;;11.90;68.51
22257;BME280;11297;42.686;23.374;2022-11-13T07:36:28;96403.94;;;11.84;68.19
22257;BME280;11297;42.686;23.374;2022-11-13T07:38:53;96389.63;;;11.81;67.73
22257;BME280;11297;42.686;23.374;2022-11-13T07:41:19;96399.22;;;11.86;67.96
22257;BME280;11297;42.686;23.374;2022-11-13T07:43:44;96394.53;;;11.88;68.00
22257;BME280;11297;42.686;23.374;2022-11-13T07:46:09;96399.97;;;11.91;67.62
22257;BME280;11297;42.686;23.374;2022-11-13T07:48:35;96402.50;;;12.01;67.73
22257;BME280;11297;42.686;23.374;2022-11-13T07:51:01;96411.56;;;12.08;67.49
22257;BME280;11297;42.686;23.374;2022-11-13T07:53:27;96406.63;;;12.07;67.17
22257;BME280;11297;42.686;23.374;2022-11-13T07:55:53;96397.97;;;12.11;66.75
22257;BME280;11297;42.686;23.374;2022-11-13T07:58:18;96410.00;;;12.07;66.46
22257;BME280;11297;42.686;23.374;2022-11-13T08:00:44;96400.38;;;12.03;66.57
22257;BME280;11297;42.686;23.374;2022-11-13T08:03:14;96405.81;;;12.06;66.66
22257;BME280;11297;42.686;23.374;2022-11-13T08:05:40;96418.16;;;11.96;67.10
22257;BME280;11297;42.686;23.374;2022-11-13T08:08:06;96413.25;;;11.90;67.05
22257;BME280;11297;42.686;23.374;2022-11-13T08:10:32;96394.00;;;11.91;66.94
22257;BME280;11297;42.686;23.374;2022-11-13T08:13:02;96404.38;;;11.95;67.16
22257;BME280;11297;42.686;23.374;2022-11-13T08:15:28;96405.50;;;11.85;67.58
22257;BME280;11297;42.686;23.374;2022-11-13T08:17:58;96427.88;;;11.86;67.66
22257;BME280;11297;42.686;23.374;2022-11-13T08:20:25;96400.56;;;11.83;68.02
22257;BME280;11297;42.686;23.374;2022-11-13T08:22:51;96408.09;;;11.85;67.82
22257;BME280;11297;42.686;23.374;2022-11-13T08:25:17;96403.88;;;11.89;67.63
22257;BME280;11297;42.686;23.374;2022-11-13T08:27:43;96394.97;;;11.94;67.47
22257;BME280;11297;42.686;23.374;2022-11-13T08:30:09;96402.22;;;12.02;67.35
22257;BME280;11297;42.686;23.374;2022-11-13T08:32:34;96409.28;;;11.97;67.30
22257;BME280;11297;42.686;23.374;2022-11-13T08:34:59;96419.06;;;13.13;84.24
22257;BME280;11297;42.686;23.374;2022-11-13T08:37:25;96404.66;;;15.05;79.14
22257;BME280;11297;42.686;23.374;2022-11-13T08:39:50;96409.78;;;15.24;64.76
22257;BME280;11297;42.686;23.374;2022-11-13T08:42:15;96404.38;;;15.20;60.44
22257;BME280;11297;42.686;23.374;2022-11-13T08:44:41;96411.31;;;14.31;58.79
22257;BME280;11297;42.686;23.374;2022-11-13T08:47:06;96396.25;;;13.91;60.26
22257;BME280;11297;42.686;23.374;2022-11-13T08:49:32;96404.41;;;13.53;60.98
22257;BME280;11297;42.686;23.374;2022-11-13T08:51:57;96414.28;;;13.20;62.25
22257;BME280;11297;42.686;23.374;2022-11-13T08:54:23;96412.72;;;13.19;62.81
22257;BME280;11297;42.686;23.374;2022-11-13T08:56:48;96414.75;;;13.03;63.26
22257;BME280;11297;42.686;23.374;2022-11-13T08:59:14;96412.25;;;12.93;63.36
22257;BME280;11297;42.686;23.374;2022-11-13T09:01:39;96419.72;;;12.77;64.22
22257;BME280;11297;42.686;23.374;2022-11-13T09:04:04;96421.25;;;12.83;64.40
22257;BME280;11297;42.686;23.374;2022-11-13T09:06:30;96423.75;;;12.64;64.92
22257;BME280;11297;42.686;23.374;2022-11-13T09:08:57;96427.53;;;12.53;65.14
22257;BME280;11297;42.686;23.374;2022-11-13T09:11:22;96407.59;;;12.39;65.63
22257;BME280;11297;42.686;23.374;2022-11-13T09:13:51;96408.81;;;12.46;66.01
22257;BME280;11297;42.686;23.374;2022-11-13T09:16:17;96421.22;;;12.31;66.32
22257;BME280;11297;42.686;23.374;2022-11-13T09:18:42;96425.91;;;12.34;66.24
22257;BME280;11297;42.686;23.374;2022-11-13T09:21:08;96416.25;;;12.35;65.98
22257;BME280;11297;42.686;23.374;2022-11-13T09:23:35;96417.25;;;12.39;65.86
22257;BME280;11297;42.686;23.374;2022-11-13T09:26:01;96414.94;;;12.37;65.84
22257;BME280;11297;42.686;23.374;2022-11-13T09:28:27;96408.34;;;12.44;65.30
22257;BME280;11297;42.686;23.374;2022-11-13T09:30:52;96408.28;;;12.21;65.85
22257;BME280;11297;42.686;23.374;2022-11-13T09:33:18;96410.91;;;12.21;66.46
22257;BME280;11297;42.686;23.374;2022-11-13T09:35:43;96410.47;;;12.14;66.62
22257;BME280;11297;42.686;23.374;2022-11-13T09:38:12;96403.00;;;12.31;66.13
22257;BME280;11297;42.686;23.374;2022-11-13T09:45:50;96395.25;;;12.26;65.78
22257;BME280;11297;42.686;23.374;2022-11-13T09:48:24;96402.25;;;12.26;65.85
22257;BME280;11297;42.686;23.374;2022-11-13T09:50:52;96398.06;;;12.30;65.58
22257;BME280;11297;42.686;23.374;2022-11-13T09:53:18;96388.81;;;12.42;65.53
22257;BME280;11297;42.686;23.374;2022-11-13T09:55:55;96385.81;;;12.53;65.02
22257;BME280;11297;42.686;23.374;2022-11-13T10:01:16;96393.66;;;12.53;64.37
22257;BME280;11297;42.686;23.374;2022-11-13T10:03:49;96384.13;;;12.44;64.54
22257;BME280;11297;42.686;23.374;2022-11-13T10:09:24;96373.91;;;12.47;64.12
22257;BME280;11297;42.686;23.374;2022-11-13T10:11:55;96391.78;;;12.59;64.34
22257;BME280;11297;42.686;23.374;2022-11-13T10:14:50;96382.03;;;12.64;63.96
22257;BME280;11297;42.686;23.374;2022-11-13T10:17:38;96372.25;;;12.56;63.89
22257;BME280;11297;42.686;23.374;2022-11-13T10:20:15;96372.78;;;12.77;63.67
22257;BME280;11297;42.686;23.374;2022-11-13T10:23:00;96373.56;;;12.77;63.26
22257;BME280;11297;42.686;23.374;2022-11-13T10:25:35;96369.47;;;12.71;63.47
22257;BME280;11297;42.686;23.374;2022-11-13T10:28:04;96368.13;;;12.74;62.83
22257;BME280;11297;42.686;23.374;2022-11-13T10:33:56;96362.78;;;12.89;63.38
22257;BME280;11297;42.686;23.374;2022-11-13T10:39:09;96353.06;;;13.12;62.21
22257;BME280;11297;42.686;23.374;2022-11-13T10:41:48;96351.28;;;13.26;62.31
22257;BME280;11297;42.686;23.374;2022-11-13T10:44:28;96348.59;;;13.31;61.99
22257;BME280;11297;42.686;23.374;2022-11-13T10:47:14;96352.06;;;13.45;61.51
22257;BME280;11297;42.686;23.374;2022-11-13T10:49:40;96353.88;;;13.44;61.40
22257;BME280;11297;42.686;23.374;2022-11-13T10:52:23;96341.34;;;13.46;61.04
22257;BME280;11297;42.686;23.374;2022-11-13T10:54:49;96349.28;;;13.55;61.05
22257;BME280;11297;42.686;23.374;2022-11-13T10:57:21;96341.97;;;13.57;61.10
22257;BME280;11297;42.686;23.374;2022-11-13T10:59:48;96340.13;;;13.57;60.88
22257;BME280;11297;42.686;23.374;2022-11-13T11:02:18;96338.50;;;13.61;60.78
22257;BME280;11297;42.686;23.374;2022-11-13T11:04:44;96339.19;;;13.67;60.50
22257;BME280;11297;42.686;23.374;2022-11-13T11:07:19;96349.34;;;13.68;60.21
22257;BME280;11297;42.686;23.374;2022-11-13T11:09:46;96340.31;;;13.61;60.34
22257;BME280;11297;42.686;23.374;2022-11-13T11:12:13;96339.34;;;13.57;60.42
22257;BME280;11297;42.686;23.374;2022-11-13T11:17:33;96334.53;;;13.64;60.29
22257;BME280;11297;42.686;23.374;2022-11-13T11:20:22;96324.16;;;13.59;60.74
22257;BME280;11297;42.686;23.374;2022-11-13T11:23:01;96312.72;;;13.55;60.62
22257;BME280;11297;42.686;23.374;2022-11-13T11:25:57;96311.06;;;13.45;60.73
22257;BME280;11297;42.686;23.374;2022-11-13T11:28:31;96314.78;;;13.58;60.92
22257;BME280;11297;42.686;23.374;2022-11-13T11:31:09;96325.50;;;13.56;60.53
22257;BME280;11297;42.686;23.374;2022-11-13T11:34:11;96320.00;;;13.58;60.07
22257;BME280;11297;42.686;23.374;2022-11-13T11:37:04;96306.28;;;13.52;60.25
22257;BME280;11297;42.686;23.374;2022-11-13T11:39:36;96308.31;;;13.55;60.53
22257;BME280;11297;42.686;23.374;2022-11-13T11:42:35;96312.81;;;13.50;60.35
22257;BME280;11297;42.686;23.374;2022-11-13T11:45:22;96312.97;;;13.58;59.98
22257;BME280;11297;42.686;23.374;2022-11-13T11:47:48;96302.22;;;13.60;60.27
22257;BME280;11297;42.686;23.374;2022-11-13T11:50:17;96306.88;;;13.63;60.12
22257;BME280;11297;42.686;23.374;2022-11-13T11:52:55;96313.00;;;13.72;59.55
22257;BME280;11297;42.686;23.374;2022-11-13T12:01:09;96292.75;;;13.64;59.68
22257;BME280;11297;42.686;23.374;2022-11-13T12:09:35;96300.41;;;13.74;59.07
22257;BME280;11297;42.686;23.374;2022-11-13T12:17:55;96286.03;;;13.76;59.43
22257;BME280;11297;42.686;23.374;2022-11-13T12:20:33;96287.19;;;13.84;58.84
22257;BME280;11297;42.686;23.374;2022-11-13T12:26:22;96281.72;;;13.98;57.95
22257;BME280;11297;42.686;23.374;2022-11-13T12:34:46;96280.53;;;13.78;58.25
22257;BME280;11297;42.686;23.374;2022-11-13T12:37:38;96270.34;;;13.76;58.24
22257;BME280;11297;42.686;23.374;2022-11-13T12:40:11;96283.59;;;13.80;58.24
22257;BME280;11297;42.686;23.374;2022-11-13T12:42:44;96275.78;;;13.93;58.27
22257;BME280;11297;42.686;23.374;2022-11-13T12:45:44;96276.88;;;14.05;58.02
22257;BME280;11297;42.686;23.374;2022-11-13T12:48:27;96277.47;;;14.16;57.52
22257;BME280;11297;42.686;23.374;2022-11-13T12:50:58;96270.91;;;14.05;57.59
22257;BME280;11297;42.686;23.374;2022-11-13T12:53:29;96265.78;;;14.13;57.25
22257;BME280;11297;42.686;23.374;2022-11-13T12:56:04;96275.84;;;14.06;57.09
22257;BME280;11297;42.686;23.374;2022-11-13T12:58:31;96265.22;;;14.16;56.95
22257;BME280;11297;42.686;23.374;2022-11-13T13:17:20;96263.91;;;14.67;55.17
22257;BME280;11297;42.686;23.374;2022-11-13T13:19:59;96257.66;;;14.77;55.12
22257;BME280;11297;42.686;23.374;2022-11-13T13:22:27;96264.88;;;14.71;55.32
22257;BME280;11297;42.686;23.374;2022-11-13T13:27:42;96252.34;;;14.82;54.58
22257;BME280;11297;42.686;23.374;2022-11-13T13:30:21;96254.72;;;14.91;54.78
22257;BME280;11297;42.686;23.374;2022-11-13T13:32:52;96257.03;;;14.93;54.99
22257;BME280;11297;42.686;23.374;2022-11-13T13:35:28;96254.44;;;14.93;54.79
22257;BME280;11297;42.686;23.374;2022-11-13T13:38:02;96257.25;;;14.96;54.64
22257;BME280;11297;42.686;23.374;2022-11-13T13:46:23;96249.47;;;14.70;54.44
22257;BME280;11297;42.686;23.374;2022-11-13T13:48:53;96247.53;;;14.62;54.75
22257;BME280;11297;42.686;23.374;2022-11-13T13:51:33;96242.78;;;14.64;54.58
22257;BME280;11297;42.686;23.374;2022-11-13T13:54:03;96230.50;;;14.51;54.91
22257;BME280;11297;42.686;23.374;2022-11-13T13:56:30;96238.34;;;14.64;54.59
22257;BME280;11297;42.686;23.374;2022-11-13T13:58:56;96244.03;;;14.66;54.79
22257;BME280;11297;42.686;23.374;2022-11-13T14:01:28;96228.06;;;14.54;54.69
22257;BME280;11297;42.686;23.374;2022-11-13T14:04:16;96252.97;;;14.65;54.99
22257;BME280;11297;42.686;23.374;2022-11-13T14:06:54;96244.44;;;14.60;54.89
22257;BME280;11297;42.686;23.374;2022-11-13T14:09:22;96243.84;;;14.63;54.99
22257;BME280;11297;42.686;23.374;2022-11-13T14:11:55;96245.88;;;14.66;54.76